Edneyville, North Carolina
Current Conditions -  °F | °C
As of 8:54 AM on Sunday 21 Dec 2014 (Local Time) from KAVL Reporting Station
Overcast Overcast  
Wind Chill: 37°   Ceiling: 2000
Heat Index: 40°   Visibility: 8mi
Dew Point: 38°   Wind: 5mph
Humidity: 93%   Direction: 170°S
Pressure: 30.23"   Gusts: NA
Location:  35.39°N, 82.34°W
Report Text: KAVL 211354Z 17004KT 8SM OVC020 04/03 A3023 RMK AO2 SLP239 T00440033
Loading
Personal Weather Stations






























Interactive Weather Map New forecast layout! Learn more

10-Day Weather Forecast

Advertisements
Track Severe Weather on mobile